Time;durP1;ratioP1;P1;durP2;ratioP2;P2;SDS_P1;SDS_P2;PMS_P1;PMS_P2;Temp;Humidity;BMP_temperature;BMP_pressure;BME280_temperature;BME280_humidity;BME280_pressure;Samples;Min_cycle;Max_cycle;Signal;HPM_P1;HPM_P2
2022/04/19 00:01:16;;;;;;;24.77;15.45;;;;;;;;;;5096088;28;20035;-75
2022/04/19 00:03:42;;;;;;;22.02;14.80;;;;;;;;;;5096030;28;20016;-75
2022/04/19 00:06:08;;;;;;;30.75;16.80;;;;;;;;;;5095766;28;20020;-75
2022/04/19 00:08:35;;;;;;;22.70;15.85;;;;;;;;;;5095916;28;20031;-75
2022/04/19 00:11:02;;;;;;;25.27;14.70;;;;;;;;;;5095707;28;20074;-74
2022/04/19 00:13:28;;;;;;;21.95;14.40;;;;;;;;;;5095642;28;20082;-77
2022/04/19 00:15:55;;;;;;;28.95;17.50;;;;;;;;;;5095846;28;20054;-76
2022/04/19 00:18:21;;;;;;;25.15;14.43;;;;;;;;;;5095693;28;20455;-76
2022/04/19 00:20:49;;;;;;;17.67;11.95;;;;;;;;;;5095696;28;20051;-79
2022/04/19 00:23:15;;;;;;;23.42;12.25;;;;;;;;;;5095649;28;20028;-74
2022/04/19 00:25:48;;;;;;;19.52;12.90;;;;;;;;;;5095643;28;20043;-77
2022/04/19 00:28:14;;;;;;;21.33;12.32;;;;;;;;;;5095461;28;20101;-78
2022/04/19 00:30:41;;;;;;;18.75;11.95;;;;;;;;;;5095589;28;20031;-77
2022/04/19 00:33:07;;;;;;;24.52;12.73;;;;;;;;;;5095505;28;20024;-77
2022/04/19 00:35:34;;;;;;;20.77;12.20;;;;;;;;;;5095086;28;20387;-74
2022/04/19 00:38:00;;;;;;;22.88;12.32;;;;;;;;;;5095475;28;20024;-74
2022/04/19 00:40:27;;;;;;;18.60;11.07;;;;;;;;;;5095095;28;20031;-72
2022/04/19 00:42:56;;;;;;;18.83;10.93;;;;;;;;;;5095116;28;20023;-78
2022/04/19 00:45:23;;;;;;;17.73;11.63;;;;;;;;;;5095222;28;20030;-77
2022/04/19 00:47:49;;;;;;;19.48;11.43;;;;;;;;;;5094829;28;20059;-77
2022/04/19 00:50:15;;;;;;;20.73;12.30;;;;;;;;;;5094912;28;20020;-77
2022/04/19 00:52:43;;;;;;;19.88;12.30;;;;;;;;;;5095114;28;20024;-77
2022/04/19 00:55:10;;;;;;;18.77;12.02;;;;;;;;;;5094976;28;20502;-77
2022/04/19 00:57:39;;;;;;;16.35;11.55;;;;;;;;;;5094817;28;20022;-77
2022/04/19 01:00:08;;;;;;;17.73;10.70;;;;;;;;;;5095331;28;20024;-78
2022/04/19 01:02:35;;;;;;;17.58;11.73;;;;;;;;;;5075925;28;20040;-76
2022/04/19 01:05:01;;;;;;;19.27;11.85;;;;;;;;;;5094812;28;20031;-76
2022/04/19 01:07:27;;;;;;;16.90;11.00;;;;;;;;;;5094900;28;20377;-71
2022/04/19 01:09:54;;;;;;;16.48;10.57;;;;;;;;;;5094614;28;20385;-79
2022/04/19 01:15:06;;;;;;;19.10;11.52;;;;;;;;;;5094559;28;20459;-78
2022/04/19 01:17:33;;;;;;;14.02;9.73;;;;;;;;;;5095132;28;20031;-79
2022/04/19 01:20:00;;;;;;;17.20;11.40;;;;;;;;;;5076412;28;20027;-76
2022/04/19 01:22:26;;;;;;;23.25;14.07;;;;;;;;;;5095619;23;20080;-69
2022/04/19 01:24:52;;;;;;;17.77;10.90;;;;;;;;;;5073946;28;20025;-69
2022/04/19 01:27:18;;;;;;;15.63;8.35;;;;;;;;;;5056004;28;20076;-69
2022/04/19 01:29:45;;;;;;;12.23;7.95;;;;;;;;;;5074400;28;20483;-69
2022/04/19 01:32:13;;;;;;;13.80;9.05;;;;;;;;;;5073875;28;20047;-69
2022/04/19 01:34:39;;;;;;;15.93;9.40;;;;;;;;;;5073665;28;20023;-69
2022/04/19 01:37:05;;;;;;;16.10;8.15;;;;;;;;;;5073798;28;20078;-69
2022/04/19 01:42:16;;;;;;;19.33;10.95;;;;;;;;;;5073619;28;20067;-69
2022/04/19 01:44:42;;;;;;;16.90;11.82;;;;;;;;;;5073731;28;20027;-69
2022/04/19 01:47:09;;;;;;;16.38;10.63;;;;;;;;;;5073110;28;20020;-68
2022/04/19 01:49:35;;;;;;;18.35;11.10;;;;;;;;;;5073453;28;20052;-69
2022/04/19 01:52:02;;;;;;;18.88;10.68;;;;;;;;;;5073713;28;20039;-69
2022/04/19 01:54:33;;;;;;;17.35;10.27;;;;;;;;;;5073546;28;20525;-69
2022/04/19 01:57:00;;;;;;;14.77;9.77;;;;;;;;;;5073551;28;20024;-69
2022/04/19 01:59:26;;;;;;;18.20;10.65;;;;;;;;;;5073334;28;20443;-69
2022/04/19 02:01:52;;;;;;;13.85;9.07;;;;;;;;;;5073072;28;20036;-69
2022/04/19 02:04:21;;;;;;;16.02;9.80;;;;;;;;;;5074746;28;20023;-69
2022/04/19 02:06:47;;;;;;;15.32;8.65;;;;;;;;;;5093563;28;20024;-69
2022/04/19 02:09:13;;;;;;;15.82;9.05;;;;;;;;;;5093841;28;20441;-69
2022/04/19 02:11:39;;;;;;;16.27;8.50;;;;;;;;;;5093465;28;20024;-69
2022/04/19 02:14:06;;;;;;;14.43;9.23;;;;;;;;;;5075696;28;20103;-68
2022/04/19 02:16:32;;;;;;;11.90;8.75;;;;;;;;;;5093294;28;20542;-68
2022/04/19 02:18:58;;;;;;;14.50;9.38;;;;;;;;;;5093338;28;20182;-68
2022/04/19 02:21:24;;;;;;;11.57;9.07;;;;;;;;;;5074755;28;20240;-68
2022/04/19 02:23:50;;;;;;;13.43;9.52;;;;;;;;;;5093293;28;20032;-68
2022/04/19 02:26:19;;;;;;;14.63;10.18;;;;;;;;;;5093344;28;20028;-68
2022/04/19 02:28:45;;;;;;;12.30;9.57;;;;;;;;;;5093309;28;20027;-68
2022/04/19 02:31:13;;;;;;;13.55;9.57;;;;;;;;;;5093098;28;20027;-68
2022/04/19 02:33:39;;;;;;;13.00;9.10;;;;;;;;;;5093154;28;20028;-69
2022/04/19 02:36:05;;;;;;;16.95;8.68;;;;;;;;;;5093062;28;20016;-69
2022/04/19 02:38:31;;;;;;;11.43;8.40;;;;;;;;;;5093347;28;20104;-69
2022/04/19 02:40:57;;;;;;;14.63;9.63;;;;;;;;;;5093049;28;20033;-69
2022/04/19 02:43:23;;;;;;;13.25;9.48;;;;;;;;;;5092998;28;20039;-69
2022/04/19 02:45:51;;;;;;;12.65;8.95;;;;;;;;;;5092942;28;20539;-69
2022/04/19 02:48:18;;;;;;;13.85;9.63;;;;;;;;;;5074239;28;20036;-69
2022/04/19 02:50:45;;;;;;;15.38;8.73;;;;;;;;;;5093130;28;20020;-69
2022/04/19 02:53:12;;;;;;;12.80;8.98;;;;;;;;;;5092985;28;20103;-69
2022/04/19 02:55:38;;;;;;;19.70;9.70;;;;;;;;;;5092753;28;20028;-69
2022/04/19 02:58:07;;;;;;;14.50;9.40;;;;;;;;;;5093072;28;20077;-69
2022/04/19 03:00:33;;;;;;;15.50;10.27;;;;;;;;;;5096917;28;20021;-69
2022/04/19 03:02:59;;;;;;;18.52;9.98;;;;;;;;;;5096915;28;20032;-69
2022/04/19 03:05:25;;;;;;;16.05;10.68;;;;;;;;;;5096970;28;20035;-69
2022/04/19 03:07:52;;;;;;;14.13;9.68;;;;;;;;;;5096919;28;20028;-69
2022/04/19 03:10:18;;;;;;;15.70;10.57;;;;;;;;;;5096720;28;20036;-69
2022/04/19 03:12:44;;;;;;;18.90;11.80;;;;;;;;;;5097060;28;20028;-69
2022/04/19 03:15:11;;;;;;;17.30;11.93;;;;;;;;;;5097373;28;20020;-68
2022/04/19 03:17:38;;;;;;;18.38;11.30;;;;;;;;;;5096921;28;20082;-69
2022/04/19 03:20:07;;;;;;;15.45;10.60;;;;;;;;;;5096557;28;20024;-68
2022/04/19 03:28:03;;;;;;;18.55;11.23;;;;;;;;;;5096863;28;20089;-68
2022/04/19 03:30:29;;;;;;;17.08;11.52;;;;;;;;;;5096463;28;20068;-69
2022/04/19 03:32:55;;;;;;;18.45;12.52;;;;;;;;;;5096400;28;20024;-68
2022/04/19 03:35:21;;;;;;;15.27;10.88;;;;;;;;;;5096535;28;20030;-69
2022/04/19 03:37:47;;;;;;;20.25;11.32;;;;;;;;;;5078259;28;20028;-69
2022/04/19 03:40:14;;;;;;;14.38;10.55;;;;;;;;;;5096405;28;20386;-69
2022/04/19 03:42:41;;;;;;;15.05;10.55;;;;;;;;;;5096145;28;20039;-69
2022/04/19 03:45:08;;;;;;;16.58;10.85;;;;;;;;;;5096352;28;20462;-69
2022/04/19 03:47:35;;;;;;;15.30;10.98;;;;;;;;;;5096206;28;20028;-68
2022/04/19 03:50:01;;;;;;;21.20;12.57;;;;;;;;;;5095953;28;20386;-68
2022/04/19 03:52:27;;;;;;;23.33;15.68;;;;;;;;;;5077283;28;20064;-69
2022/04/19 03:54:53;;;;;;;20.55;14.38;;;;;;;;;;5096149;28;20482;-69
2022/04/19 03:57:20;;;;;;;27.95;14.77;;;;;;;;;;5096231;28;20074;-67
2022/04/19 03:59:46;;;;;;;18.67;13.35;;;;;;;;;;5095884;28;20107;-69
2022/04/19 04:02:12;;;;;;;23.00;14.00;;;;;;;;;;5095759;28;20032;-69
2022/04/19 04:04:38;;;;;;;23.60;15.38;;;;;;;;;;5077993;28;20028;-69
2022/04/19 04:07:05;;;;;;;23.52;15.63;;;;;;;;;;5096068;28;20034;-68
2022/04/19 04:09:37;;;;;;;25.42;14.20;;;;;;;;;;5095356;28;20020;-69
2022/04/19 04:12:04;;;;;;;22.02;14.57;;;;;;;;;;5096179;28;20016;-69
2022/04/19 04:14:30;;;;;;;28.55;15.23;;;;;;;;;;5095759;28;20502;-68
2022/04/19 04:16:57;;;;;;;31.88;17.75;;;;;;;;;;5095607;28;20032;-69
2022/04/19 04:19:23;;;;;;;44.10;27.25;;;;;;;;;;5095524;28;20021;-69
2022/04/19 04:21:49;;;;;;;32.42;18.67;;;;;;;;;;5095477;28;20090;-68
2022/04/19 04:24:15;;;;;;;81.50;57.00;;;;;;;;;;5095532;28;20039;-68
2022/04/19 04:26:41;;;;;;;45.03;25.98;;;;;;;;;;5095270;28;20028;-68
2022/04/19 04:29:07;;;;;;;49.75;25.20;;;;;;;;;;5095412;28;20031;-70
2022/04/19 04:31:33;;;;;;;44.30;26.58;;;;;;;;;;5095333;28;20032;-68
2022/04/19 04:33:59;;;;;;;43.95;24.88;;;;;;;;;;5095192;28;20031;-69
2022/04/19 04:36:25;;;;;;;47.45;24.42;;;;;;;;;;5095222;28;20038;-69
2022/04/19 04:38:52;;;;;;;49.38;25.60;;;;;;;;;;5095289;28;20515;-69
2022/04/19 04:41:18;;;;;;;46.03;22.25;;;;;;;;;;5095037;28;20039;-68
2022/04/19 04:43:44;;;;;;;47.55;25.15;;;;;;;;;;5095003;28;20024;-68
2022/04/19 04:51:39;;;;;;;54.78;33.80;;;;;;;;;;5095527;28;20385;-69
2022/04/19 04:54:05;;;;;;;60.45;34.35;;;;;;;;;;5094797;28;20020;-69
2022/04/19 04:56:31;;;;;;;49.88;31.48;;;;;;;;;;5094898;28;20141;-69
2022/04/19 04:58:58;;;;;;;48.08;26.48;;;;;;;;;;5094836;28;20020;-69
2022/04/19 05:01:24;;;;;;;42.15;26.95;;;;;;;;;;5094656;28;20103;-69
2022/04/19 05:03:50;;;;;;;40.47;25.50;;;;;;;;;;5094648;28;20123;-68
2022/04/19 05:06:16;;;;;;;34.60;24.40;;;;;;;;;;5094761;28;20016;-69
2022/04/19 05:08:42;;;;;;;41.03;27.02;;;;;;;;;;5094541;28;20024;-69
2022/04/19 05:11:08;;;;;;;45.92;30.52;;;;;;;;;;5094486;28;20028;-69
2022/04/19 05:13:34;;;;;;;37.58;23.33;;;;;;;;;;5094418;28;20016;-69
2022/04/19 05:16:01;;;;;;;32.65;22.45;;;;;;;;;;5076313;28;20115;-69
2022/04/19 05:18:27;;;;;;;33.00;22.88;;;;;;;;;;5094309;28;20016;-69
2022/04/19 05:20:54;;;;;;;36.17;20.65;;;;;;;;;;5093563;28;20040;-69
2022/04/19 05:23:20;;;;;;;30.75;20.45;;;;;;;;;;5094092;28;20051;-69
2022/04/19 05:25:47;;;;;;;36.67;20.75;;;;;;;;;;5094143;28;20144;-69
2022/04/19 05:28:13;;;;;;;36.47;19.77;;;;;;;;;;5094038;28;20062;-70
2022/04/19 05:30:39;;;;;;;37.50;21.85;;;;;;;;;;5094306;28;20051;-70
2022/04/19 05:33:05;;;;;;;35.45;21.08;;;;;;;;;;5094007;28;20024;-68
2022/04/19 05:35:32;;;;;;;35.75;22.40;;;;;;;;;;5094058;28;20032;-69
2022/04/19 05:37:59;;;;;;;37.25;22.73;;;;;;;;;;5094447;28;20032;-69
2022/04/19 05:40:25;;;;;;;35.78;23.00;;;;;;;;;;5093735;28;20016;-69
2022/04/19 05:42:51;;;;;;;36.55;22.88;;;;;;;;;;5094005;28;20031;-69
2022/04/19 05:45:18;;;;;;;33.67;20.63;;;;;;;;;;5093956;28;20019;-69
2022/04/19 05:47:44;;;;;;;37.70;23.95;;;;;;;;;;5093718;28;20073;-69
2022/04/19 05:50:10;;;;;;;40.95;24.50;;;;;;;;;;5093554;28;20028;-69
2022/04/19 05:52:36;;;;;;;48.75;25.55;;;;;;;;;;5093740;28;20094;-69
2022/04/19 05:55:03;;;;;;;42.40;25.52;;;;;;;;;;5093551;28;20024;-69
2022/04/19 05:57:29;;;;;;;40.38;25.02;;;;;;;;;;5093568;28;20025;-69
2022/04/19 05:59:55;;;;;;;39.45;25.73;;;;;;;;;;5093649;28;20103;-69
2022/04/19 06:05:06;;;;;;;52.58;32.75;;;;;;;;;;5093889;28;20570;-70
2022/04/19 06:07:32;;;;;;;53.05;30.52;;;;;;;;;;5093306;28;20032;-69
2022/04/19 06:09:59;;;;;;;47.05;30.10;;;;;;;;;;5093508;28;20020;-69
2022/04/19 06:12:25;;;;;;;41.88;29.20;;;;;;;;;;5093539;28;20076;-69
2022/04/19 06:14:52;;;;;;;47.22;30.35;;;;;;;;;;5093280;28;20065;-69
2022/04/19 06:17:18;;;;;;;46.20;30.77;;;;;;;;;;5093375;28;20023;-69
2022/04/19 06:19:44;;;;;;;40.05;27.85;;;;;;;;;;5093111;28;20028;-69
2022/04/19 06:22:10;;;;;;;52.45;29.73;;;;;;;;;;5092957;28;20109;-69
2022/04/19 06:24:36;;;;;;;35.85;25.23;;;;;;;;;;5093175;28;20028;-69
2022/04/19 06:27:02;;;;;;;40.65;29.77;;;;;;;;;;5093075;28;20028;-70
2022/04/19 06:29:29;;;;;;;40.45;25.05;;;;;;;;;;5093097;28;20024;-69
2022/04/19 06:31:55;;;;;;;43.35;28.33;;;;;;;;;;5093125;28;20479;-69
2022/04/19 06:34:21;;;;;;;55.92;36.30;;;;;;;;;;5092988;28;20395;-69
2022/04/19 06:36:47;;;;;;;40.03;28.27;;;;;;;;;;5093135;28;20090;-69
2022/04/19 06:39:13;;;;;;;27.27;18.58;;;;;;;;;;5092961;28;20024;-69
2022/04/19 06:41:40;;;;;;;33.88;19.88;;;;;;;;;;5092898;28;20059;-69
2022/04/19 06:44:08;;;;;;;19.27;12.48;;;;;;;;;;5093118;28;20048;-69
2022/04/19 06:46:36;;;;;;;25.15;16.13;;;;;;;;;;5092947;28;20031;-69
2022/04/19 06:49:02;;;;;;;23.25;16.52;;;;;;;;;;5093023;28;20020;-70
2022/04/19 06:51:30;;;;;;;21.75;14.75;;;;;;;;;;5093131;28;20028;-70
2022/04/19 06:53:57;;;;;;;36.90;22.02;;;;;;;;;;5092713;28;20101;-70
2022/04/19 06:56:23;;;;;;;31.13;19.83;;;;;;;;;;5092914;28;20035;-68
2022/04/19 06:58:50;;;;;;;19.23;11.80;;;;;;;;;;5093089;28;20379;-69
2022/04/19 07:01:17;;;;;;;23.60;15.50;;;;;;;;;;5074684;28;20043;-69
2022/04/19 07:03:43;;;;;;;13.07;7.72;;;;;;;;;;5092615;28;20021;-68
2022/04/19 07:06:09;;;;;;;35.35;17.63;;;;;;;;;;5092583;28;20020;-69
2022/04/19 07:08:35;;;;;;;33.10;18.92;;;;;;;;;;5092675;28;20020;-69
2022/04/19 07:11:01;;;;;;;10.75;8.38;;;;;;;;;;5092637;28;20020;-69
2022/04/19 07:13:28;;;;;;;26.88;14.57;;;;;;;;;;5092665;28;20470;-69
2022/04/19 07:15:54;;;;;;;14.70;8.27;;;;;;;;;;5092646;28;20443;-68
2022/04/19 07:18:23;;;;;;;15.27;9.02;;;;;;;;;;5092710;28;20020;-69
2022/04/19 07:26:38;;;;;;;16.95;10.30;;;;;;;;;;5092861;28;20035;-68
2022/04/19 07:29:10;;;;;;;16.20;11.10;;;;;;;;;;5092826;28;20039;-68
2022/04/19 07:31:41;;;;;;;13.88;7.55;;;;;;;;;;5092228;28;20028;-68
2022/04/19 07:34:07;;;;;;;14.52;9.18;;;;;;;;;;5092391;28;20031;-68
2022/04/19 07:36:35;;;;;;;14.50;8.02;;;;;;;;;;5092367;28;20055;-69
2022/04/19 07:39:03;;;;;;;8.48;6.13;;;;;;;;;;5092527;28;20024;-70
2022/04/19 07:41:30;;;;;;;9.05;6.68;;;;;;;;;;5092236;28;20133;-68
2022/04/19 07:43:56;;;;;;;13.27;7.18;;;;;;;;;;5092047;28;20044;-68
2022/04/19 07:46:22;;;;;;;13.15;7.25;;;;;;;;;;5095519;28;20067;-69
2022/04/19 07:48:51;;;;;;;15.63;7.05;;;;;;;;;;5095887;28;20080;-70
2022/04/19 07:51:17;;;;;;;10.23;6.28;;;;;;;;;;5096027;28;20084;-70
2022/04/19 07:53:43;;;;;;;9.07;7.10;;;;;;;;;;5077481;28;20032;-71
2022/04/19 07:56:09;;;;;;;11.93;6.20;;;;;;;;;;5096238;28;20031;-70
2022/04/19 07:58:35;;;;;;;6.78;5.68;;;;;;;;;;5095809;28;20044;-70
2022/04/19 08:01:02;;;;;;;7.28;5.75;;;;;;;;;;5095673;28;20427;-70
2022/04/19 08:03:28;;;;;;;22.20;7.75;;;;;;;;;;5095723;28;20048;-70
2022/04/19 08:05:54;;;;;;;6.43;4.85;;;;;;;;;;5095544;28;20486;-70
2022/04/19 08:08:24;;;;;;;12.95;7.45;;;;;;;;;;5095573;28;20101;-70
2022/04/19 08:10:50;;;;;;;8.65;5.47;;;;;;;;;;5095552;28;20020;-70
2022/04/19 08:13:16;;;;;;;9.60;5.03;;;;;;;;;;5095737;28;20028;-70
2022/04/19 08:15:43;;;;;;;6.35;4.80;;;384.60;1177.60;;;;;;5095250;28;20521;-69
2022/04/19 08:18:18;;;;;;;7.63;5.47;;;384.70;1152.00;;;;;;5095515;28;20118;-69
2022/04/19 08:20:44;;;;;;;6.55;5.80;;;;;;;;;;5095303;28;20077;-68
2022/04/19 08:23:11;;;;;;;7.55;5.00;;;;;;;;;;5095140;28;20048;-68
2022/04/19 08:25:38;;;;;;;11.60;6.68;;;;;;;;;;5095397;28;20390;-68
2022/04/19 08:28:04;;;;;;;28.67;15.07;;;;;;;;;;5095255;28;20032;-69
2022/04/19 08:30:31;;;;;;;7.38;5.55;;;;;;;;;;5095023;28;20490;-68
2022/04/19 08:32:58;;;;;;;10.52;6.97;;;410.20;1126.40;;;;;;5094901;28;20037;-70
2022/04/19 08:35:24;;;;;;;9.65;6.35;;;;;;;;;;5095115;28;20024;-70
2022/04/19 08:37:50;;;;;;;12.98;6.60;;;;;;;;;;5094954;28;20028;-70
2022/04/19 08:40:17;;;;;;;5.72;4.55;;;435.20;1100.80;;;;;;5094997;28;20066;-71
2022/04/19 08:42:44;;;;;;;7.88;5.22;;;435.30;1254.40;;;;;;5094918;28;20339;-70
2022/04/19 08:45:12;;;;;;;6.40;4.60;;;435.50;1075.20;;;;;;5094848;28;20028;-71
2022/04/19 08:47:40;;;;;;;10.88;5.63;;;435.30;1075.20;;;;;;5094886;28;20024;-70
2022/04/19 08:50:11;;;;;;;8.40;6.15;;;;;;;;;;5094651;28;20027;-70
2022/04/19 08:52:38;;;;;;;6.68;5.18;;;;;;;;;;5094881;28;20024;-70
2022/04/19 08:57:53;;;;;;;8.30;5.50;;;;;;;;;;5094121;28;20035;-68
2022/04/19 09:00:23;;;;;;;7.43;5.47;;;;;;;;;;5094733;28;20032;-68
2022/04/19 09:02:53;;;;;;;6.78;4.40;;;;;;;;;;5094377;28;20036;-68
2022/04/19 09:05:21;;;;;;;6.65;4.43;;;;;;;;;;5094676;28;20028;-69
2022/04/19 09:07:48;;;;;;;5.55;4.50;;;;;;;;;;5094307;28;20028;-68
2022/04/19 09:10:16;;;;;;;5.60;3.55;;;;;;;;;;5094364;28;20048;-69
2022/04/19 09:13:00;;;;;;;6.15;4.63;;;;;;;;;;5094282;28;20016;-68
2022/04/19 09:15:33;;;;;;;10.45;6.72;;;;;;;;;;5094288;28;20024;-69
2022/04/19 09:18:00;;;;;;;6.18;4.53;;;;;;;;;;5094107;28;20052;-69
2022/04/19 09:20:26;;;;;;;7.78;5.13;;;;;;;;;;5094074;28;20035;-69
2022/04/19 09:23:05;;;;;;;8.20;6.13;;;;;;;;;;5093980;28;20414;-69
2022/04/19 09:25:32;;;;;;;6.18;4.95;;;;;;;;;;5094170;28;20023;-69
2022/04/19 09:27:59;;;;;;;6.05;4.32;;;;;;;;;;5094155;28;20055;-69
2022/04/19 09:30:26;;;;;;;6.90;5.60;;;;;;;;;;5094176;28;20024;-69
2022/04/19 09:33:06;;;;;;;7.75;4.25;;;;;;;;;;5093992;28;20100;-69
2022/04/19 09:35:47;;;;;;;6.88;6.07;;;;;;;;;;5075894;28;20020;-68
2022/04/19 09:38:13;;;;;;;11.82;5.13;;;;;;;;;;5093901;28;20026;-68
2022/04/19 09:40:43;;;;;;;7.25;6.03;;;461.70;947.20;;;;;;5093718;28;20020;-69
2022/04/19 09:43:13;;;;;;;6.97;4.55;;;461.70;947.20;;;;;;5093801;28;20032;-69
2022/04/19 09:45:46;;;;;;;7.50;5.93;;;;;;;;;;5093646;28;20490;-69
2022/04/19 09:48:22;;;;;;;17.50;8.20;;;;;;;;;;5093562;28;20441;-69
2022/04/19 09:51:09;;;;;;;8.30;4.63;;;614.80;768.00;;;;;;5093498;28;20063;-69
2022/04/19 09:53:45;;;;;;;6.35;4.70;;;614.70;768.00;;;;;;5093920;28;20059;-69
2022/04/19 09:56:13;;;;;;;5.05;3.42;;;;;;;;;;5093718;28;20021;-70
2022/04/19 09:58:40;;;;;;;6.53;5.25;;;;;;;;;;5093430;28;20024;-69
2022/04/19 10:01:07;;;;;;;5.32;4.82;;;666.20;691.20;;;;;;5093391;28;20145;-69
2022/04/19 10:09:06;;;;;;;5.18;4.10;;;;;;;;;;5093413;28;20077;-71
2022/04/19 10:11:33;;;;;;;8.63;5.03;;;;;;;;;;5093628;28;20016;-71
2022/04/19 10:13:59;;;;;;;5.70;4.63;;;;;;;;;;5092862;28;20027;-71
2022/04/19 10:16:28;;;;;;;7.72;4.55;;;;;;;;;;5093271;28;20024;-71
2022/04/19 10:18:54;;;;;;;5.40;4.18;;;;;;;;;;5093472;28;20027;-71
2022/04/19 10:21:33;;;;;;;15.48;5.47;;;;;;;;;;5093076;28;20059;-71
2022/04/19 10:24:10;;;;;;;5.00;4.35;;;845.10;588.80;;;;;;5093083;28;20020;-71
2022/04/19 10:26:47;;;;;;;8.73;5.85;;;845.00;588.80;;;;;;5093328;28;20473;-70
2022/04/19 10:29:32;;;;;;;6.82;4.63;;;845.20;614.40;;;;;;5093075;28;20031;-71
2022/04/19 10:32:08;;;;;;;5.55;4.03;;;;;;;;;;5093054;28;20016;-71
2022/04/19 10:34:39;;;;;;;7.07;6.00;;;820.10;563.20;;;;;;5092918;28;20023;-71
2022/04/19 10:37:21;;;;;;;5.65;5.15;;;;;;;;;;5092952;28;20050;-71
2022/04/19 10:39:50;;;;;;;9.48;6.93;;;;;;;;;;5092863;28;20038;-71
2022/04/19 10:42:47;;;;;;;5.13;4.38;;;;;;;;;;5092953;28;20068;-71
2022/04/19 10:45:13;;;;;;;6.88;6.22;;;;;;;;;;4974982;28;20433;-71
2022/04/19 10:47:54;;;;;;;4.53;4.13;;;;;;;;;;4991160;28;20022;-71
2022/04/19 10:50:29;;;;;;;4.80;3.75;;;;;;;;;;4991083;28;20065;-71
2022/04/19 10:52:59;;;;;;;4.78;3.95;;;;;;;;;;4991300;28;20030;-71
2022/04/19 10:55:26;;;;;;;4.20;3.75;;;;;;;;;;4991009;28;20102;-71
2022/04/19 10:58:06;;;;;;;4.00;3.60;;;794.20;563.20;;;;;;4991210;28;20053;-69
2022/04/19 11:00:34;;;;;;;4.57;3.40;;;;;;;;;;4991115;28;20022;-69
2022/04/19 11:03:01;;;;;;;6.30;3.60;;;;;;;;;;4990919;28;20057;-69
2022/04/19 11:06:03;;;;;;;5.57;3.28;;;;;;;;;;4991171;28;20041;-69
2022/04/19 11:08:29;;;;;;;7.30;6.53;;;;;;;;;;4914116;29;20033;-69
2022/04/19 11:10:55;;;;;;;4.10;3.70;;;;;;;;;;4914153;29;20040;-69
2022/04/19 11:13:37;;;;;;;5.55;4.22;;;;;;;;;;4914127;29;20024;-69
2022/04/19 11:16:05;;;;;;;6.03;4.45;;;;;;;;;;4914122;29;20040;-69
2022/04/19 11:18:31;;;;;;;4.50;4.00;;;;;;;;;;4914124;29;20631;-69
2022/04/19 11:20:59;;;;;;;8.18;4.95;;;;;;;;;;4940582;28;20503;-69
2022/04/19 11:23:26;;;;;;;17.60;12.30;;;;;;;;;;5014352;28;20052;-69
2022/04/19 11:25:53;;;;;;;6.22;4.90;;;;;;;;;;4997878;28;20025;-69
2022/04/19 11:28:20;;;;;;;5.90;4.00;;;;;;;;;;5014359;28;20025;-69
2022/04/19 11:30:55;;;;;;;8.27;6.18;;;;;;;;;;5014334;28;20030;-69
2022/04/19 11:33:25;;;;;;;7.72;4.55;;;;;;;;;;5014125;28;20089;-69
2022/04/19 11:36:00;;;;;;;4.18;3.58;;;;;;;;;;5014040;28;20034;-68
2022/04/19 11:38:27;;;;;;;10.32;5.90;;;;;;;;;;5014096;28;20026;-69
2022/04/19 11:49:09;;;;;;;13.20;5.25;;;;;;;;;;5095846;28;20120;-70
2022/04/19 11:51:36;;;;;;;12.32;8.05;;;;;;;;;;5096100;28;20050;-70
2022/04/19 11:54:03;;;;;;;9.40;7.03;;;;;;;;;;5096086;28;20374;-69
2022/04/19 11:56:30;;;;;;;4.93;3.78;;;;;;;;;;5095705;28;20089;-68
2022/04/19 11:58:58;;;;;;;5.28;3.60;;;;;;;;;;5095818;28;20478;-69
2022/04/19 12:01:24;;;;;;;6.30;3.90;;;;;;;;;;5095670;28;20116;-69
2022/04/19 12:03:50;;;;;;;4.10;3.55;;;;;;;;;;5095629;28;20103;-69
2022/04/19 12:06:18;;;;;;;4.63;3.85;;;;;;;;;;5095586;28;20016;-69
2022/04/19 12:08:46;;;;;;;5.38;4.45;;;564.00;742.40;;;;;;5077352;28;20497;-69
2022/04/19 12:11:16;;;;;;;24.48;22.02;;;;;;;;;;5095412;28;20020;-69
2022/04/19 12:13:43;;;;;;;5.45;4.40;;;;;;;;;;5095499;28;20020;-69
2022/04/19 12:16:28;;;;;;;6.38;4.38;;;;;;;;;;5095601;28;20024;-70
2022/04/19 12:18:54;;;;;;;4.88;4.10;;;;;;;;;;5095460;28;20044;-69
2022/04/19 12:21:38;;;;;;;12.45;7.55;;;;;;;;;;5076883;28;20071;-69
2022/04/19 12:24:04;;;;;;;11.32;8.55;;;;;;;;;;5095278;28;20545;-69
2022/04/19 12:26:31;;;;;;;11.15;6.60;;;;;;;;;;5095400;28;20021;-69
2022/04/19 12:29:08;;;;;;;11.20;6.97;;;563.20;819.20;;;;;;5095101;28;20020;-69
2022/04/19 12:31:35;;;;;;;4.78;3.95;;;;;;;;;;5094796;28;20024;-69
2022/04/19 12:34:02;;;;;;;9.02;6.63;;;;;;;;;;5094966;28;20020;-69
2022/04/19 12:36:28;;;;;;;4.68;4.22;;;;;;;;;;5076001;28;20032;-69
2022/04/19 12:38:59;;;;;;;11.55;7.45;;;;;;;;;;5076915;28;20107;-69
2022/04/19 12:41:39;;;;;;;6.05;4.93;;;;;;;;;;5095007;28;20039;-69
2022/04/19 12:44:05;;;;;;;6.57;5.38;;;;;;;;;;5094876;28;20451;-69
2022/04/19 12:46:31;;;;;;;8.35;5.63;;;;;;;;;;5094873;28;20060;-69
2022/04/19 12:48:57;;;;;;;8.55;5.30;;;;;;;;;;5075862;28;20040;-69
2022/04/19 12:51:24;;;;;;;9.07;6.25;;;;;;;;;;5094549;28;20047;-69
2022/04/19 12:54:07;;;;;;;9.18;7.35;;;;;;;;;;5094712;28;20062;-69
2022/04/19 12:56:34;;;;;;;7.15;5.78;;;538.10;793.60;;;;;;5095048;28;20024;-69
2022/04/19 12:59:00;;;;;;;9.57;6.60;;;;;;;;;;5094685;28;20065;-69
2022/04/19 13:01:26;;;;;;;30.42;27.17;;;;;;;;;;5094456;28;20033;-69
2022/04/19 13:03:52;;;;;;;13.90;12.55;;;538.20;793.60;;;;;;5094401;28;20032;-69
2022/04/19 13:14:32;;;;;;;12.95;8.80;;;;;;;;;;5094730;28;20031;-69
2022/04/19 13:16:58;;;;;;;24.55;16.65;;;;;;;;;;5094297;28;20410;-68
2022/04/19 13:19:24;;;;;;;9.23;7.30;;;;;;;;;;5094313;28;20047;-69
2022/04/19 13:21:50;;;;;;;12.98;7.20;;;;;;;;;;5094087;28;20077;-69
2022/04/19 13:24:16;;;;;;;6.65;4.22;;;;;;;;;;5094249;28;20017;-70
2022/04/19 13:26:42;;;;;;;6.75;4.55;;;;;;;;;;5094264;28;20367;-69
2022/04/19 13:29:08;;;;;;;5.25;3.65;;;;;;;;;;5093963;28;20020;-69
2022/04/19 13:31:34;;;;;;;4.72;3.30;;;;;;;;;;5075840;28;20107;-69
2022/04/19 13:34:02;;;;;;;3.75;3.13;;;;;;;;;;5093981;28;20169;-69
2022/04/19 13:36:28;;;;;;;6.45;3.72;;;;;;;;;;5093945;28;20020;-69
2022/04/19 13:38:54;;;;;;;4.20;3.10;;;;;;;;;;5094217;28;20032;-69
2022/04/19 13:41:21;;;;;;;5.32;4.38;;;;;;;;;;5093633;28;20475;-69
2022/04/19 13:43:47;;;;;;;4.90;3.83;;;;;;;;;;5093046;28;20063;-69
2022/04/19 13:46:13;;;;;;;6.22;4.30;;;;;;;;;;5093956;28;20055;-69
2022/04/19 13:48:39;;;;;;;7.28;3.90;;;;;;;;;;5094007;28;20020;-69
2022/04/19 13:51:05;;;;;;;5.40;3.47;;;;;;;;;;5093662;28;20028;-69
2022/04/19 13:53:32;;;;;;;5.30;3.60;;;;;;;;;;5093503;28;20478;-69
2022/04/19 13:55:58;;;;;;;8.07;3.55;;;;;;;;;;5094070;28;20144;-69
2022/04/19 13:58:25;;;;;;;6.45;5.03;;;;;;;;;;5093477;28;20039;-69
2022/04/19 14:00:51;;;;;;;8.65;4.70;;;;;;;;;;5093398;28;20017;-69
2022/04/19 14:03:17;;;;;;;7.80;5.15;;;;;;;;;;5093375;28;20028;-68
2022/04/19 14:05:43;;;;;;;5.72;4.60;;;;;;;;;;5093526;28;20027;-69
2022/04/19 14:08:10;;;;;;;9.57;7.05;;;;;;;;;;5093693;28;20606;-69
2022/04/19 14:10:36;;;;;;;6.03;4.68;;;;;;;;;;5093430;28;20095;-69
2022/04/19 14:13:03;;;;;;;5.72;3.70;;;;;;;;;;5093178;28;20020;-69
2022/04/19 14:15:29;;;;;;;7.35;5.60;;;;;;;;;;5093376;28;20555;-69
2022/04/19 14:17:55;;;;;;;6.43;4.93;;;;;;;;;;5074918;28;20031;-68
2022/04/19 14:20:21;;;;;;;8.80;5.05;;;;;;;;;;5075063;28;20032;-69
2022/04/19 14:22:47;;;;;;;8.00;5.03;;;487.20;870.40;;;;;;5093059;28;20047;-69
2022/04/19 14:25:13;;;;;;;7.40;5.00;;;487.10;870.40;;;;;;5093042;28;20046;-69
2022/04/19 14:27:39;;;;;;;8.77;5.72;;;487.10;870.40;;;;;;5092921;28;20024;-69
2022/04/19 14:35:35;;;;;;;8.27;5.13;;;;;;;;;;5093011;28;20047;-68
2022/04/19 14:38:01;;;;;;;8.27;5.10;;;;;;;;;;5075015;28;20557;-68
2022/04/19 14:40:27;;;;;;;11.05;6.05;;;;;;;;;;5092744;28;20054;-69
2022/04/19 14:42:53;;;;;;;9.88;7.18;;;;;;;;;;5092917;28;20032;-69
2022/04/19 14:45:19;;;;;;;7.38;4.40;;;;;;;;;;5093059;28;20016;-68
2022/04/19 14:47:45;;;;;;;12.80;6.57;;;;;;;;;;5092855;28;20103;-68
2022/04/19 14:50:12;;;;;;;7.47;6.43;;;;;;;;;;5074950;28;20055;-68
2022/04/19 14:52:38;;;;;;;8.35;6.95;;;;;;;;;;5092521;28;20479;-68
2022/04/19 14:55:04;;;;;;;10.75;6.20;;;;;;;;;;5096521;28;20429;-68
2022/04/19 14:57:30;;;;;;;8.95;6.25;;;;;;;;;;5096904;28;20035;-68
2022/04/19 14:59:56;;;;;;;5.68;4.22;;;;;;;;;;5096711;28;20466;-69
2022/04/19 15:02:22;;;;;;;7.57;4.70;;;;;;;;;;5096698;28;20044;-69
2022/04/19 15:04:48;;;;;;;5.60;3.88;;;486.40;870.40;;;;;;5096729;28;20121;-68
2022/04/19 15:07:14;;;;;;;13.50;5.68;;;461.70;870.40;;;;;;5078901;28;20478;-69
2022/04/19 15:09:39;;;;;;;15.02;9.45;;;486.40;896.00;;;;;;5096683;28;20028;-69
2022/04/19 15:12:06;;;;;;;6.90;4.78;;;486.50;896.00;;;;;;5097022;28;20028;-69
2022/04/19 15:14:34;;;;;;;13.00;7.80;;;486.40;870.40;;;;;;5096803;28;20020;-69